Time;durP1;ratioP1;P1;durP2;ratioP2;P2;SDS_P1;SDS_P2;PMS_P1;PMS_P2;Temp;Humidity;BMP_temperature;BMP_pressure;BME280_temperature;BME280_humidity;BME280_pressure;Samples;Min_cycle;Max_cycle;Signal;HPM_P1;HPM_P2
2022/04/01 00:02:40;;;;;;;10.50;3.30;;;;;;;1.87;45.64;98443.30;213827;1277;139371;-64
2022/04/01 00:07:44;;;;;;;3.60;3.00;;;;;;;1.85;46.25;98444.65;214126;1276;140716;-65
2022/04/01 00:12:46;;;;;;;5.30;4.20;;;;;;;1.82;46.38;98438.50;214378;1277;139542;-65
2022/04/01 00:17:49;;;;;;;4.20;3.60;;;;;;;1.80;46.22;98437.79;215888;1276;141427;-65
2022/04/01 00:22:52;;;;;;;4.00;2.60;;;;;;;1.78;46.45;98436.34;215908;1276;140988;-66
2022/04/01 00:27:55;;;;;;;4.80;3.20;;;;;;;1.75;47.27;98437.61;216006;1276;139069;-68
2022/04/01 00:32:57;;;;;;;5.20;2.80;;;;;;;1.73;47.28;98432.23;215922;1276;139504;-68
2022/04/01 00:38:01;;;;;;;4.00;3.00;;;;;;;1.67;47.69;98438.20;215829;1276;141355;-66
2022/04/01 00:43:03;;;;;;;4.20;3.50;;;;;;;1.61;48.16;98425.38;215166;1276;141104;-66
2022/04/01 00:48:07;;;;;;;7.40;3.70;;;;;;;1.54;48.86;98424.59;213423;1276;140561;-64
2022/04/01 00:53:12;;;;;;;4.90;3.30;;;;;;;1.45;48.89;98423.91;213945;1278;141133;-64
2022/04/01 00:58:16;;;;;;;8.00;3.50;;;;;;;1.38;49.48;98421.23;213407;1276;140018;-64
2022/04/01 01:03:20;;;;;;;6.80;4.30;;;;;;;1.29;49.70;98413.34;213526;1276;142980;-64
2022/04/01 01:08:25;;;;;;;7.40;3.90;;;;;;;1.22;50.19;98409.66;215140;1276;139687;-65
2022/04/01 01:13:29;;;;;;;2.60;2.30;;;;;;;1.17;50.34;98406.29;213741;1277;139731;-64
2022/04/01 01:18:32;;;;;;;5.00;2.90;;;;;;;1.11;50.60;98406.98;214240;1276;140475;-64
2022/04/01 01:23:37;;;;;;;4.50;2.70;;;;;;;1.05;51.02;98407.40;214342;1276;140082;-64
2022/04/01 01:28:40;;;;;;;5.60;2.90;;;;;;;1.01;50.93;98395.17;214080;1276;141731;-64
2022/04/01 01:33:45;;;;;;;5.00;3.10;;;;;;;0.97;51.06;98393.20;213175;1274;139429;-63
2022/04/01 01:38:47;;;;;;;3.50;2.80;;;;;;;0.94;51.63;98396.88;213922;1276;139371;-65
2022/04/01 01:43:50;;;;;;;6.00;3.70;;;;;;;0.90;51.85;98396.34;213911;1276;140537;-64
2022/04/01 01:48:52;;;;;;;5.20;2.90;;;;;;;0.86;52.26;98388.96;213423;1276;140547;-64
2022/04/01 01:59:18;;;;;;;2.90;1.80;;;;;;;0.73;52.87;98384.17;213333;1276;140706;-63
2022/04/01 02:04:24;;;;;;;2.60;1.90;;;;;;;0.68;52.98;98374.02;214108;1276;141556;-63
2022/04/01 02:09:27;;;;;;;6.00;3.60;;;;;;;0.64;53.29;98378.38;214854;1276;139707;-65
2022/04/01 02:14:30;;;;;;;3.60;2.30;;;;;;;0.60;53.52;98371.45;215283;1276;140217;-65
2022/04/01 02:19:34;;;;;;;4.80;3.20;;;;;;;0.55;53.95;98369.09;214566;1276;139936;-64
2022/04/01 02:24:38;;;;;;;5.30;2.70;;;;;;;0.52;54.23;98365.38;215030;1277;139002;-64
2022/04/01 02:29:40;;;;;;;2.40;1.90;;;;;;;0.46;54.30;98362.60;215994;1276;139478;-65
2022/04/01 02:34:43;;;;;;;8.20;3.60;;;;;;;0.45;54.83;98362.68;215928;1276;139585;-64
2022/04/01 02:39:46;;;;;;;7.60;2.80;;;;;;;0.44;55.01;98364.05;215881;1275;139291;-66
2022/04/01 02:44:49;;;;;;;4.40;3.80;;;;;;;0.42;55.19;98364.05;215746;1276;140018;-66
2022/04/01 02:49:52;;;;;;;6.30;4.20;;;;;;;0.36;55.53;98361.18;215521;1276;140145;-64
2022/04/01 02:54:55;;;;;;;3.90;2.70;;;;;;;0.29;55.72;98355.28;214063;1277;142336;-66
2022/04/01 02:59:58;;;;;;;3.80;2.60;;;;;;;0.22;56.12;98352.21;214447;1275;139266;-65
2022/04/01 03:05:01;;;;;;;6.80;3.40;;;;;;;0.13;56.54;98350.27;213095;1277;138974;-63
2022/04/01 03:10:05;;;;;;;6.90;4.80;;;;;;;0.02;57.26;98350.71;214809;1276;139092;-64
2022/04/01 03:15:08;;;;;;;4.10;3.70;;;;;;;-0.06;57.62;98347.17;214398;1277;139862;-64
2022/04/01 03:20:14;;;;;;;4.90;3.50;;;;;;;-0.09;57.80;98352.13;214102;1276;139538;-63
2022/04/01 03:25:19;;;;;;;4.00;2.70;;;;;;;-0.15;57.85;98355.54;213214;1276;140933;-63
2022/04/01 03:30:23;;;;;;;7.70;3.10;;;;;;;-0.19;58.54;98356.54;213159;1277;235028;-64
2022/04/01 03:35:27;;;;;;;7.80;3.20;;;;;;;-0.23;58.63;98353.98;213197;1276;140022;-64
2022/04/01 03:40:38;;;;;;;5.70;3.30;;;;;;;-0.32;59.09;98357.36;213188;1276;139535;-64
2022/04/01 03:45:46;;;;;;;7.80;2.80;;;;;;;-0.47;59.87;98356.16;213284;1276;140554;-64
2022/04/01 03:50:55;;;;;;;3.30;2.70;;;;;;;-0.61;60.09;98360.43;214376;1276;139738;-63
2022/04/01 03:56:00;;;;;;;3.70;2.50;;;;;;;-0.68;60.59;98357.20;214021;1276;139145;-64
2022/04/01 04:01:05;;;;;;;4.70;2.40;;;;;;;-0.73;61.05;98351.65;214732;1276;139591;-64
2022/04/01 04:06:09;;;;;;;8.00;3.20;;;;;;;-0.79;61.25;98354.45;214162;1276;139980;-63
2022/04/01 04:11:12;;;;;;;4.70;3.10;;;;;;;-0.83;61.73;98361.91;213787;1279;139798;-63
2022/04/01 04:16:18;;;;;;;6.60;3.50;;;;;;;-0.89;62.06;98369.05;213559;1276;140930;-64
2022/04/01 04:21:27;;;;;;;4.40;3.10;;;;;;;-0.96;62.52;98372.95;213688;1276;142338;-63
2022/04/01 04:26:45;;;;;;;3.80;2.60;;;;;;;-1.01;62.91;98372.20;215363;1275;140765;-64
2022/04/01 04:32:02;;;;;;;2.90;2.50;;;;;;;-1.01;63.23;98374.48;215855;1277;141091;-65
2022/04/01 04:37:09;;;;;;;4.70;4.10;;;;;;;-1.04;63.50;98379.49;215500;1277;139716;-65
2022/04/01 04:42:15;;;;;;;11.30;5.70;;;;;;;-1.09;63.86;98382.48;214849;1277;141882;-65
2022/04/01 04:47:25;;;;;;;4.70;2.50;;;;;;;-1.19;64.24;98379.73;215885;1276;140536;-64
2022/04/01 04:52:32;;;;;;;11.10;3.40;;;;;;;-1.27;64.90;98381.95;215072;1276;140324;-64
2022/04/01 04:57:35;;;;;;;3.30;2.70;;;;;;;-1.30;65.29;98381.61;215536;1276;141253;-66
2022/04/01 05:02:41;;;;;;;7.50;3.10;;;;;;;-1.28;65.54;98383.19;215558;1277;140817;-66
2022/04/01 05:08:03;;;;;;;6.70;3.20;;;;;;;-1.27;65.72;98390.11;215157;1277;140682;-66
2022/04/01 05:13:47;;;;;;;3.50;2.50;;;;;;;-1.23;65.94;98391.54;214615;1276;140044;-67
2022/04/01 05:19:19;;;;;;;7.10;3.70;;;;;;;-1.23;66.10;98388.97;213773;1279;141663;-68
2022/04/01 05:24:50;;;;;;;5.50;3.10;;;;;;;-1.24;66.36;98388.61;214211;1276;141447;-63
2022/04/01 05:30:13;;;;;;;8.80;2.80;;;;;;;-1.24;66.80;98396.58;213071;1277;140617;-63
2022/04/01 05:35:17;;;;;;;4.50;3.20;;;;;;;-1.22;67.07;98395.17;213186;1277;144188;-62
2022/04/01 05:40:22;;;;;;;4.60;3.10;;;;;;;-1.22;67.07;98400.04;213207;1277;141342;-63
2022/04/01 05:45:27;;;;;;;5.60;2.60;;;;;;;-1.24;67.39;98402.19;213982;1276;143166;-63
2022/04/01 05:50:32;;;;;;;3.00;2.70;;;;;;;-1.32;67.73;98399.85;213309;1277;141411;-66
2022/04/01 05:55:39;;;;;;;4.30;2.50;;;;;;;-1.37;67.98;98396.23;213855;1276;213059;-69
2022/04/01 06:01:07;;;;;;;4.30;2.70;;;;;;;-1.39;68.21;98404.35;213630;1277;141798;-65
2022/04/01 06:06:26;;;;;;;8.50;3.30;;;;;;;-1.41;69.12;98402.84;213837;1277;142104;-67
2022/04/01 06:11:57;;;;;;;3.40;2.10;;;;;;;-1.37;69.78;98405.85;213077;1277;140867;-70
2022/04/01 06:17:24;;;;;;;6.40;3.40;;;;;;;-1.38;69.26;98402.26;213862;1276;141129;-69
2022/04/01 06:22:33;;;;;;;7.00;2.20;;;;;;;-1.26;69.22;98404.76;213466;1277;140915;-67
2022/04/01 06:27:44;;;;;;;3.40;3.00;;;;;;;-1.20;68.96;98408.35;213390;1277;142638;-70
2022/04/01 06:33:12;;;;;;;4.90;3.00;;;;;;;-1.12;68.78;98414.57;213613;1276;142953;-72
2022/04/01 06:38:47;;;;;;;4.30;2.50;;;;;;;-1.08;68.75;98413.14;215682;1276;141119;-72
2022/04/01 06:43:50;;;;;;;4.90;3.10;;;;;;;-0.99;68.83;98409.82;215538;1276;140320;-72
2022/04/01 06:48:56;;;;;;;3.40;2.30;;;;;;;-0.94;68.39;98413.80;213839;1277;141835;-70
2022/04/01 06:53:58;;;;;;;3.40;2.30;;;;;;;-0.91;68.62;98415.40;214869;1276;142466;-70
2022/04/01 06:59:05;;;;;;;5.00;2.90;;;;;;;-0.87;68.60;98412.52;215209;1276;141469;-68
2022/04/01 07:04:11;;;;;;;3.60;2.50;;;;;;;-0.85;68.65;98414.79;214615;1276;141194;-69
2022/04/01 07:09:15;;;;;;;2.10;1.80;;;;;;;-0.81;68.67;98414.58;214915;1276;140963;-70
2022/04/01 07:14:18;;;;;;;4.60;2.50;;;;;;;-0.75;68.72;98407.04;213713;1275;141059;-69
2022/04/01 07:19:21;;;;;;;2.90;2.70;;;;;;;-0.68;68.60;98401.84;214833;1276;141193;-66
2022/04/01 07:24:26;;;;;;;7.10;3.00;;;;;;;-0.60;68.58;98402.58;214288;1276;140966;-67
2022/04/01 07:29:28;;;;;;;5.20;3.20;;;;;;;-0.52;68.49;98401.20;213966;1276;142258;-68
2022/04/01 07:34:33;;;;;;;6.70;3.70;;;;;;;-0.41;68.54;98404.04;214443;1276;140314;-68
2022/04/01 07:39:37;;;;;;;4.70;3.50;;;;;;;-0.23;68.40;98406.53;213510;1276;142197;-68
2022/04/01 07:44:40;;;;;;;5.90;2.80;;;;;;;-0.04;68.06;98399.89;212960;1277;141894;-67
2022/04/01 07:49:43;;;;;;;2.40;2.20;;;;;;;0.16;67.78;98398.09;213196;1276;141137;-66
2022/04/01 07:54:53;;;;;;;4.10;2.40;;;;;;;0.34;67.67;98397.80;214171;1276;141395;-68
2022/04/01 07:59:56;;;;;;;4.30;2.80;;;;;;;0.43;67.57;98404.46;213482;1276;140275;-67
2022/04/01 08:05:00;;;;;;;12.10;3.20;;;;;;;0.44;67.54;98399.49;213185;1277;140234;-68
2022/04/01 08:10:05;;;;;;;6.60;3.00;;;;;;;0.54;67.56;98396.39;213524;1277;142808;-67
2022/04/01 08:15:18;;;;;;;17.30;3.60;;;;;;;0.75;67.26;98394.66;213885;1276;140435;-64
2022/04/01 08:20:20;;;;;;;7.40;3.50;;;;;;;1.03;67.05;98395.58;214076;1276;140141;-66
2022/04/01 08:25:24;;;;;;;5.00;3.40;;;;;;;1.27;66.44;98397.39;214771;1277;141269;-66
2022/04/01 08:30:35;;;;;;;8.20;3.00;;;;;;;1.40;66.00;98401.96;214751;1276;141372;-67
2022/04/01 08:35:38;;;;;;;17.80;4.20;;;;;;;1.53;66.24;98402.70;215734;1276;140593;-70
2022/04/01 08:40:41;;;;;;;6.30;3.00;;;;;;;1.64;65.83;98401.71;215001;1276;140958;-69
2022/04/01 08:45:47;;;;;;;10.00;3.00;;;;;;;1.59;65.76;98402.10;214580;1276;139265;-68
2022/04/01 08:50:52;;;;;;;6.70;2.80;;;;;;;1.44;65.38;98418.83;214963;1275;140307;-67
2022/04/01 08:55:56;;;;;;;9.20;2.80;;;;;;;1.27;65.72;98421.54;215792;1276;140877;-68
2022/04/01 09:01:00;;;;;;;6.30;2.60;;;;;;;1.35;66.20;98422.37;215747;1276;141489;-67
2022/04/01 09:06:06;;;;;;;6.90;2.80;;;;;;;1.50;66.04;98422.52;213548;1276;139886;-66
2022/04/01 09:11:18;;;;;;;4.50;3.70;;;;;;;1.36;65.57;98416.95;213415;1276;141090;-67
2022/04/01 09:16:25;;;;;;;8.50;3.30;;;;;;;1.19;65.87;98418.19;214259;1276;140282;-69
2022/04/01 09:21:31;;;;;;;8.40;4.40;;;;;;;1.19;65.97;98417.27;213937;1277;140381;-67
2022/04/01 09:26:39;;;;;;;8.00;3.40;;;;;;;1.19;66.16;98419.04;214346;1276;141607;-65
2022/04/01 09:31:41;;;;;;;10.90;5.10;;;;;;;1.23;66.23;98421.64;214641;1276;160769;-67
2022/04/01 09:36:44;;;;;;;7.20;2.90;;;;;;;1.20;66.13;98420.61;213840;1277;140395;-66
2022/04/01 09:41:52;;;;;;;5.10;3.60;;;;;;;1.14;65.80;98414.73;213052;1276;140051;-66
2022/04/01 09:47:06;;;;;;;4.70;2.40;;;;;;;1.16;65.76;98413.88;213327;1276;139656;-66
2022/04/01 09:52:15;;;;;;;6.30;3.30;;;;;;;1.24;65.68;98415.58;213264;1274;140810;-66
2022/04/01 09:57:21;;;;;;;7.80;3.20;;;;;;;1.36;65.80;98414.68;213592;1276;139603;-66
2022/04/01 10:02:24;;;;;;;5.40;3.40;;;;;;;1.45;65.50;98406.06;213496;1276;141568;-68
2022/04/01 10:07:32;;;;;;;5.10;3.00;;;;;;;1.57;65.53;98406.89;214274;1276;140898;-68
2022/04/01 10:12:37;;;;;;;;;;;;;;;1.68;65.02;98403.52;213472;1276;140264;-66
2022/04/01 10:17:41;;;;;;;3.70;3.00;;;;;;;1.87;65.29;98406.16;213607;1276;598097;-65
2022/04/01 10:22:45;;;;;;;3.80;3.50;;;;;;;1.95;64.83;98401.09;213864;1276;140762;-65
2022/04/01 10:27:51;;;;;;;3.30;2.60;;;;;;;1.90;64.56;98410.38;214668;1276;141902;-71
2022/04/01 10:33:04;;;;;;;7.80;3.20;;;;;;;1.84;64.20;98412.05;214105;1276;141608;-69
2022/04/01 10:38:09;;;;;;;4.40;3.30;;;;;;;1.72;64.23;98415.51;215158;1276;141451;-65
2022/04/01 10:43:17;;;;;;;17.20;3.50;;;;;;;1.66;64.32;98415.56;214166;1276;142338;-68
2022/04/01 10:53:46;;;;;;;4.00;3.60;;;;;;;1.36;64.15;98420.66;213827;1276;126972;-69
2022/04/01 10:59:09;;;;;;;6.80;2.80;;;;;;;1.26;64.33;98422.98;213988;1276;140835;-70
2022/04/01 11:04:13;;;;;;;8.70;2.90;;;;;;;1.22;64.47;98416.55;214939;1276;141083;-71
2022/04/01 11:09:37;;;;;;;12.40;3.60;;;;;;;1.21;64.23;98411.69;213363;1276;141687;-68
2022/04/01 11:15:07;;;;;;;4.70;2.60;;;;;;;1.27;64.70;98402.79;214616;1276;140278;-71
2022/04/01 11:20:22;;;;;;;5.40;3.10;;;;;;;1.29;65.47;98402.67;213612;1276;142392;-69
2022/04/01 11:25:36;;;;;;;6.50;3.30;;;;;;;1.34;65.38;98397.81;213660;1276;153551;-63
2022/04/01 11:30:42;;;;;;;5.10;3.70;;;;;;;1.37;64.95;98400.67;213583;1276;141365;-63
2022/04/01 11:35:50;;;;;;;4.70;3.20;;;;;;;1.34;65.17;98402.66;214053;1276;141577;-63
2022/04/01 11:40:56;;;;;;;9.00;4.10;;;;;;;1.33;64.91;98406.98;213438;1276;140964;-62
2022/04/01 11:46:07;;;;;;;5.60;3.30;;;;;;;1.41;65.36;98410.70;213949;1277;140469;-66
2022/04/01 11:51:23;;;;;;;5.70;3.70;;;;;;;1.59;65.00;98405.90;213830;1276;140411;-67
2022/04/01 11:56:28;;;;;;;9.20;4.40;;;;;;;1.73;65.16;98409.60;213162;1276;140594;-67
2022/04/01 12:01:54;;;;;;;8.30;3.30;;;;;;;1.82;65.05;98419.73;213536;1277;139229;-64
2022/04/01 12:12:34;;;;;;;5.70;3.70;;;;;;;1.58;65.19;98423.15;214203;1276;141568;-66
2022/04/01 12:18:26;;;;;;;11.20;3.40;;;;;;;1.48;65.43;98425.72;213501;1276;141718;-67
2022/04/01 12:23:59;;;;;;;5.30;3.80;;;;;;;1.38;65.43;98427.20;213878;1276;140181;-67
2022/04/01 12:29:17;;;;;;;10.60;3.10;;;;;;;1.39;66.01;98430.55;214587;1276;140259;-68
2022/04/01 12:34:20;;;;;;;15.10;3.20;;;;;;;1.34;66.51;98430.17;213991;1276;140098;-67
2022/04/01 12:39:23;;;;;;;8.80;3.00;;;;;;;1.31;66.55;98429.73;215288;1276;142619;-70
2022/04/01 12:44:32;;;;;;;11.80;2.40;;;;;;;1.37;67.09;98430.52;214673;1276;141628;-67
2022/04/01 12:49:36;;;;;;;10.00;3.80;;;;;;;1.42;67.98;98430.52;215190;1276;140188;-65
2022/04/01 12:54:41;;;;;;;7.90;3.50;;;;;;;1.47;67.57;98430.73;215611;1275;140615;-70
2022/04/01 12:59:51;;;;;;;8.90;3.60;;;;;;;1.44;68.02;98429.17;215730;1276;140156;-72
2022/04/01 13:04:56;;;;;;;11.10;3.40;;;;;;;1.39;68.28;98428.49;215897;1276;141343;-73
2022/04/01 13:10:13;;;;;;;8.10;3.40;;;;;;;1.36;68.60;98426.20;215802;1276;142201;-67
2022/04/01 13:15:19;;;;;;;9.40;4.20;;;;;;;1.30;68.56;98426.50;214520;1276;141709;-69
2022/04/01 13:20:25;;;;;;;4.90;3.10;;;;;;;1.19;68.88;98426.83;214473;1275;140021;-70
2022/04/01 13:25:31;;;;;;;4.10;2.50;;;;;;;1.06;69.17;98436.27;214764;1276;162172;-67
2022/04/01 13:30:34;;;;;;;10.00;3.20;;;;;;;0.97;70.10;98439.90;213626;1276;140614;-65
2022/04/01 13:35:39;;;;;;;8.60;3.70;;;;;;;0.95;70.33;98444.67;213979;1276;141844;-65
2022/04/01 13:40:46;;;;;;;8.20;2.90;;;;;;;1.00;70.51;98445.59;213266;1278;142210;-64
2022/04/01 13:45:50;;;;;;;7.00;3.60;;;;;;;1.04;70.52;98446.36;214063;1276;139691;-65
2022/04/01 13:50:54;;;;;;;11.90;4.70;;;;;;;1.03;70.80;98453.14;214613;1276;140718;-66
2022/04/01 13:55:58;;;;;;;9.70;3.40;;;;;;;1.01;70.89;98448.34;213214;1276;140596;-67
2022/04/01 14:01:00;;;;;;;10.00;3.30;;;;;;;0.89;71.01;98450.18;214025;1277;140962;-66
2022/04/01 14:06:03;;;;;;;8.60;4.70;;;;;;;0.85;71.38;98446.23;213572;1277;140504;-65
2022/04/01 14:11:09;;;;;;;11.60;5.90;;;;;;;0.83;71.12;98443.13;213592;1278;142097;-69
2022/04/01 14:16:15;;;;;;;9.20;3.60;;;;;;;0.85;71.62;98436.35;214329;1277;141283;-64
2022/04/01 14:21:18;;;;;;;7.70;4.00;;;;;;;0.86;71.81;98439.05;213198;1279;140208;-67
2022/04/01 14:26:20;;;;;;;15.10;4.90;;;;;;;0.92;71.95;98438.21;213250;1277;140651;-64
2022/04/01 14:31:23;;;;;;;16.00;4.30;;;;;;;0.90;71.60;98439.32;213952;1279;142050;-69
2022/04/01 14:36:26;;;;;;;5.90;4.30;;;;;;;0.86;71.97;98445.34;213565;1277;142520;-66
2022/04/01 14:41:33;;;;;;;6.90;4.90;;;;;;;0.90;72.14;98444.85;213660;1278;141146;-64
2022/04/01 14:46:38;;;;;;;8.70;5.40;;;;;;;0.89;71.85;98445.70;214380;1277;140934;-68
2022/04/01 14:51:41;;;;;;;7.50;3.60;;;;;;;0.85;71.83;98443.90;214126;1277;142597;-65
2022/04/01 14:56:44;;;;;;;8.50;3.70;;;;;;;0.89;72.13;98447.05;215595;1277;140887;-68
2022/04/01 15:01:46;;;;;;;10.10;4.60;;;;;;;0.91;72.08;98446.63;215025;1277;140931;-71
2022/04/01 15:06:51;;;;;;;11.10;4.00;;;;;;;0.87;71.79;98447.56;215366;1276;140917;-68
2022/04/01 15:11:53;;;;;;;4.60;4.10;;;;;;;0.80;72.01;98450.03;215572;1277;140906;-69
2022/04/01 15:16:56;;;;;;;5.30;4.40;;;;;;;0.79;71.98;98451.85;215585;1277;141245;-68
2022/04/01 15:21:59;;;;;;;6.80;3.40;;;;;;;0.81;71.80;98455.52;215040;1277;141706;-68
2022/04/01 15:27:02;;;;;;;10.30;4.40;;;;;;;0.82;71.94;98453.46;213020;1279;141094;-64
2022/04/01 15:32:08;;;;;;;5.10;4.00;;;;;;;0.81;72.16;98455.32;214326;1277;141758;-64
2022/04/01 15:37:17;;;;;;;9.50;4.10;;;;;;;0.78;71.84;98456.80;213515;1278;141043;-65
2022/04/01 15:42:21;;;;;;;7.20;3.60;;;;;;;0.77;72.08;98464.60;212830;1278;141601;-65
2022/04/01 15:47:26;;;;;;;3.00;2.70;;;;;;;0.73;72.09;98466.70;213739;1278;141333;-65
2022/04/01 15:52:32;;;;;;;10.50;4.40;;;;;;;0.68;72.30;98473.99;212576;1278;140896;-63
2022/04/01 15:57:36;;;;;;;11.50;4.10;;;;;;;0.58;72.10;98483.40;212903;1278;141392;-66
2022/04/01 16:02:43;;;;;;;6.60;4.50;;;;;;;0.54;72.56;98483.94;213901;1277;140911;-64
2022/04/01 16:07:49;;;;;;;7.10;4.50;;;;;;;0.53;72.58;98486.35;213402;1278;141283;-67
2022/04/01 16:12:53;;;;;;;7.00;3.90;;;;;;;0.49;72.68;98490.79;212814;1278;141688;-66
2022/04/01 16:17:57;;;;;;;7.90;3.70;;;;;;;0.44;72.65;98486.20;213448;1279;140928;-65
2022/04/01 16:23:04;;;;;;;8.80;4.60;;;;;;;0.36;72.86;98498.02;213876;1279;140059;-65
2022/04/01 16:28:08;;;;;;;6.90;4.40;;;;;;;0.29;73.03;98505.08;212879;1278;141210;-65
2022/04/01 16:33:12;;;;;;;14.40;6.40;;;;;;;0.25;73.01;98504.50;212990;1277;139663;-67
2022/04/01 16:38:19;;;;;;;10.00;5.00;;;;;;;0.23;73.24;98511.02;213523;1278;140770;-64
2022/04/01 16:43:22;;;;;;;12.10;5.90;;;;;;;0.22;73.41;98517.27;213920;1277;140008;-65
2022/04/01 16:48:26;;;;;;;9.60;5.60;;;;;;;0.16;73.34;98523.83;214910;1279;141140;-67
2022/04/01 16:53:30;;;;;;;10.80;5.50;;;;;;;0.12;73.48;98529.21;214788;1277;139781;-67
2022/04/01 16:58:33;;;;;;;13.30;5.50;;;;;;;0.09;73.58;98526.38;215396;1277;141001;-65
2022/04/01 17:03:36;;;;;;;7.20;4.10;;;;;;;0.06;73.89;98527.09;215336;1277;140506;-66
2022/04/01 17:14:15;;;;;;;9.40;4.70;;;;;;;0.03;74.34;98536.59;215364;1276;141900;-64
2022/04/01 17:19:21;;;;;;;10.80;4.70;;;;;;;-0.02;74.26;98543.77;215353;1279;140755;-65
2022/04/01 17:24:30;;;;;;;9.50;4.90;;;;;;;-0.02;74.35;98551.14;215302;1278;141587;-66
2022/04/01 17:29:33;;;;;;;7.00;5.20;;;;;;;-0.04;74.22;98560.77;215184;1277;140659;-69
2022/04/01 17:34:40;;;;;;;7.30;4.60;;;;;;;-0.06;74.34;98567.97;213848;1277;141118;-65
2022/04/01 17:39:47;;;;;;;12.60;5.30;;;;;;;-0.06;74.61;98569.30;214601;1277;141923;-65
2022/04/01 17:44:50;;;;;;;9.10;5.30;;;;;;;-0.08;74.59;98570.06;213812;1278;141193;-64
2022/04/01 17:49:53;;;;;;;12.20;5.80;;;;;;;-0.08;74.60;98577.48;213666;1277;140663;-65
2022/04/01 17:54:59;;;;;;;7.60;4.70;;;;;;;-0.13;74.69;98579.21;213309;1277;140986;-64
2022/04/01 18:00:09;;;;;;;9.60;4.00;;;;;;;-0.16;74.71;98582.58;213801;1277;140216;-64
2022/04/01 18:05:15;;;;;;;8.70;5.00;;;;;;;-0.17;74.84;98585.73;213416;1277;142105;-65
2022/04/01 18:10:17;;;;;;;6.10;4.40;;;;;;;-0.20;74.92;98589.45;213115;1278;140245;-65
2022/04/01 18:15:20;;;;;;;10.30;4.00;;;;;;;-0.23;75.31;98592.45;213343;1278;141549;-64
2022/04/01 18:20:24;;;;;;;10.40;4.10;;;;;;;-0.24;75.16;98592.89;213899;1277;141013;-64
2022/04/01 18:25:39;;;;;;;9.30;5.00;;;;;;;-0.23;75.25;98597.05;213906;1278;140539;-64
2022/04/01 18:30:42;;;;;;;12.70;5.10;;;;;;;-0.22;75.14;98592.86;214140;1278;141524;-65
2022/04/01 18:35:48;;;;;;;7.20;3.70;;;;;;;-0.23;75.26;98594.88;212947;1277;140776;-64
2022/04/01 18:40:55;;;;;;;4.60;2.90;;;;;;;-0.27;75.27;98599.23;212521;1278;140591;-64
2022/04/01 18:45:58;;;;;;;;;;;;;;;-0.32;75.31;98602.52;214799;1278;142674;-65
2022/04/01 18:51:05;;;;;;;5.20;3.50;;;;;;;-0.39;75.49;98607.20;213635;1278;126771;-65
2022/04/01 18:56:10;;;;;;;14.10;4.50;;;;;;;-0.39;75.59;98616.66;213677;1279;140802;-64
2022/04/01 19:01:24;;;;;;;6.30;4.00;;;;;;;-0.40;75.80;98613.64;214413;1278;141269;-65
2022/04/01 19:06:48;;;;;;;7.60;4.30;;;;;;;-0.41;75.69;98612.63;215318;1279;140117;-66
2022/04/01 19:12:12;;;;;;;4.60;4.00;;;;;;;-0.40;75.94;98615.45;214204;1277;140791;-66
2022/04/01 19:17:19;;;;;;;9.30;4.80;;;;;;;-0.40;75.84;98618.02;215410;1277;142180;-66
2022/04/01 19:22:24;;;;;;;6.40;4.50;;;;;;;-0.40;75.83;98621.14;215294;1277;141064;-66
2022/04/01 19:27:26;;;;;;;9.60;3.50;;;;;;;-0.39;75.82;98627.02;215394;1278;141020;-68
2022/04/01 19:32:28;;;;;;;5.30;3.40;;;;;;;-0.39;75.81;98627.66;215757;1277;142242;-68
2022/04/01 19:37:34;;;;;;;6.70;4.00;;;;;;;-0.40;75.88;98628.27;215703;1277;144483;-66
2022/04/01 19:42:37;;;;;;;5.70;3.50;;;;;;;-0.41;75.76;98631.55;213944;1278;142973;-64
2022/04/01 19:47:41;;;;;;;13.10;3.90;;;;;;;-0.44;75.81;98635.73;214489;1278;141494;-65
2022/04/01 19:52:43;;;;;;;5.40;3.90;;;;;;;-0.47;75.81;98633.77;213325;1278;141177;-64
2022/04/01 19:57:46;;;;;;;10.10;3.50;;;;;;;-0.48;75.80;98640.77;213097;1277;140794;-64
2022/04/01 20:02:55;;;;;;;7.80;3.90;;;;;;;-0.49;76.04;98636.77;214240;1278;142089;-64
2022/04/01 20:07:58;;;;;;;6.20;5.00;;;;;;;-0.48;75.87;98638.91;213207;1277;141729;-64
2022/04/01 20:13:02;;;;;;;8.00;4.20;;;;;;;-0.48;75.87;98636.81;213549;1278;208803;-64
2022/04/01 20:18:05;;;;;;;8.10;3.60;;;;;;;-0.51;75.92;98634.70;213418;1279;142221;-64
2022/04/01 20:23:08;;;;;;;5.60;3.40;;;;;;;-0.52;75.93;98631.18;213381;1277;139935;-63
2022/04/01 20:28:12;;;;;;;11.60;5.30;;;;;;;-0.55;75.83;98627.06;212606;1279;141188;-64
2022/04/01 20:33:15;;;;;;;10.70;4.30;;;;;;;-0.57;75.86;98625.31;213547;1279;142480;-64
2022/04/01 20:38:19;;;;;;;13.60;4.20;;;;;;;-0.56;75.77;98626.44;212942;1277;141682;-64
2022/04/01 20:43:23;;;;;;;8.70;3.60;;;;;;;-0.55;75.71;98619.16;213516;1277;224379;-64
2022/04/01 20:48:27;;;;;;;12.40;3.70;;;;;;;-0.57;75.50;98617.33;213203;1277;140313;-64
2022/04/01 20:53:30;;;;;;;16.20;4.60;;;;;;;-0.61;75.54;98615.26;213252;1277;140024;-64
2022/04/01 20:58:34;;;;;;;7.30;4.30;;;;;;;-0.62;75.72;98617.80;214571;1276;143992;-64
2022/04/01 21:03:37;;;;;;;4.70;2.90;;;;;;;-0.61;75.61;98611.88;214441;1277;140432;-64
2022/04/01 21:08:43;;;;;;;6.60;4.20;;;;;;;-0.61;75.68;98612.13;215230;1277;140331;-64
2022/04/01 21:13:50;;;;;;;6.60;5.10;;;;;;;-0.63;75.69;98609.83;215620;1277;140081;-67
2022/04/01 21:18:53;;;;;;;4.50;2.80;;;;;;;-0.60;75.55;98610.70;214649;1280;140268;-64
2022/04/01 21:23:56;;;;;;;10.00;4.00;;;;;;;-0.60;75.43;98616.27;215325;1278;140792;-65
2022/04/01 21:28:59;;;;;;;5.30;3.50;;;;;;;-0.58;75.65;98618.09;214361;1277;141255;-64
2022/04/01 21:34:03;;;;;;;16.60;6.00;;;;;;;-0.58;75.60;98618.52;214793;1277;141578;-64
2022/04/01 21:39:06;;;;;;;6.20;4.20;;;;;;;-0.60;75.78;98612.89;213642;1277;151016;-64
2022/04/01 21:44:10;;;;;;;6.70;3.70;;;;;;;-0.63;75.64;98623.91;213570;1277;140257;-64
2022/04/01 21:49:13;;;;;;;5.70;3.80;;;;;;;-0.67;75.83;98620.73;214715;1277;141569;-64
2022/04/01 21:54:16;;;;;;;7.80;4.00;;;;;;;-0.71;75.89;98620.15;214068;1276;140207;-66
2022/04/01 21:59:21;;;;;;;8.20;3.90;;;;;;;-0.75;75.77;98613.75;213642;1277;140020;-63
2022/04/01 22:04:29;;;;;;;7.20;3.10;;;;;;;-0.76;76.07;98610.64;214280;1277;140574;-64
2022/04/01 22:09:32;;;;;;;5.30;3.10;;;;;;;-0.77;76.03;98606.73;214764;1277;140563;-64
2022/04/01 22:14:34;;;;;;;4.40;3.00;;;;;;;-0.79;75.96;98605.27;212194;1277;1655983;-63
2022/04/01 22:19:38;;;;;;;6.60;3.80;;;;;;;-0.83;76.00;98603.21;213631;1277;208456;-64
2022/04/01 22:24:40;;;;;;;7.80;2.80;;;;;;;-0.85;76.13;98601.86;213377;1277;141812;-64
2022/04/01 22:29:45;;;;;;;3.70;3.20;;;;;;;-0.88;76.23;98605.63;213005;1277;139824;-63
2022/04/01 22:34:48;;;;;;;4.80;3.30;;;;;;;-0.89;76.16;98607.39;213118;1277;152022;-64
2022/04/01 22:39:51;;;;;;;6.30;3.20;;;;;;;-0.91;76.40;98604.80;213276;1281;139815;-64
2022/04/01 22:44:55;;;;;;;6.90;3.10;;;;;;;-0.95;76.37;98606.75;212890;1277;140229;-63
2022/04/01 22:49:58;;;;;;;4.90;3.10;;;;;;;-0.97;76.42;98604.35;213539;1277;140357;-63
2022/04/01 22:55:02;;;;;;;8.50;2.90;;;;;;;-0.97;76.68;98597.88;214155;1277;234565;-64
2022/04/01 23:00:05;;;;;;;6.30;4.00;;;;;;;-0.96;76.64;98591.90;213539;1276;141477;-64
2022/04/01 23:05:09;;;;;;;4.00;3.60;;;;;;;-0.97;76.77;98597.91;214058;1277;140547;-64
2022/04/01 23:10:11;;;;;;;7.20;3.50;;;;;;;-0.98;76.65;98603.99;213998;1279;140495;-64
2022/04/01 23:15:16;;;;;;;6.50;3.90;;;;;;;-0.99;76.96;98602.33;214519;1279;141466;-64
2022/04/01 23:20:23;;;;;;;6.90;3.60;;;;;;;-1.01;76.78;98604.09;213319;1277;141049;-64
2022/04/01 23:25:27;;;;;;;8.60;3.90;;;;;;;-1.00;77.04;98602.12;215673;1277;140478;-64
2022/04/01 23:30:30;;;;;;;4.60;3.20;;;;;;;-0.98;77.04;98599.96;215632;1277;141208;-67
2022/04/01 23:35:33;;;;;;;6.00;3.60;;;;;;;-0.98;77.21;98600.93;215788;1277;140971;-67
2022/04/01 23:40:37;;;;;;;5.40;3.40;;;;;;;-0.96;77.08;98600.74;214732;1279;140589;-67
2022/04/01 23:45:40;;;;;;;9.90;3.90;;;;;;;-0.96;77.19;98601.07;215086;1278;142110;-65
2022/04/01 23:50:43;;;;;;;6.20;3.70;;;;;;;-0.95;77.27;98591.98;214162;1279;140270;-64
2022/04/01 23:55:46;;;;;;;4.40;3.60;;;;;;;-0.95;77.27;98592.02;214627;1279;141793;-65
